Weather at Partenit Heliport

Public forecast

Using degrees Celsius for public forecast. Weather courtesy of forecast.io.

Closest aviation weather report (METAR) to Partenit Heliport

Closest report is Anapa Vityazevo Airport, 130.6 nm (241.8 km) ENE.

2024/07/22 11:00 (retrieved 30 minutes ago)

URKA 221100Z 24005MPS 9999 FEW///CB 31/20 Q1008 R21/010070 TEMPO 1000 TSRA SCT030CB RMK QFE751/1001

Closest aviation forecast (TAF) to Partenit Heliport

Closest forecast is Anapa Vityazevo Airport, 130.6 nm (241.8 km) ENE.

2024/07/22 09:21 (retrieved 2 hours ago)

TAF TAF URKA 220749Z 2209/2309 25003G08MPS 9999 SCT040CB TEMPO 2209/2221 27006G12MPS TEMPO 2221/2309 27006G15MPS 6000 -SHRA BKN016CB